Time Latitude Longitude Accuracy (66% radius in meters) Altitude (meters) Speed (km/hour) Bearing (degrees) Battery (%) GPS flag
07:41:11 57.202720 60.114481 5 320.23487115931 0 0 89 1 delete
07:41:01 57.202720 60.114481 5 320.23487115931 0 0 89 1 delete
07:40:59 57.202711 60.114435 5 320.41269066278 0.92047965526581 0 89 1 delete
07:40:51 57.202702 60.114379 5 319.95495972224 0 0 89 1 delete
07:40:40 57.202684 60.114301 5 318.82660550624 1.4549959897995 38.155223846436 89 1 delete
07:40:39 57.202670 60.114267 5 318.2400996061 1.932897567749 33.399932861328 89 1 delete
07:40:36 57.202594 60.114131 5 317.87994028907 2.4954566955566 29.397178649902 89 1 delete
07:40:33 57.202520 60.114003 5 317.18645184487 2.1807107925415 36.031101226807 89 1 delete
07:40:30 57.202459 60.113911 5 316.89267731179 2.2963902950287 18.812925338745 89 1 delete
07:40:29 57.202434 60.113884 5 316.8052994227 1.8458571434021 19.741523742676 89 1 delete
07:40:25 57.202352 60.113778 5 316.58193160128 1.7332999706268 13.995119094849 89 1 delete
07:40:21 57.202270 60.113686 5 315.93790055439 1.278725028038 27.366535186768 89 1 delete
07:40:20 57.202252 60.113667 5 315.90443030931 0.92768377065659 28.840360641479 89 1 delete
07:40:10 57.202181 60.113587 5 317.75939909555 0 0 89 1 delete
07:39:59 57.202181 60.113587 5 317.75939909555 0 0 89 1 delete
07:39:57 57.202184 60.113575 5 317.64094058517 0 0 89 1 delete
07:39:52 57.202128 60.113434 5 316.72927621752 1.30355656147 65.92195892334 89 1 delete
07:39:49 57.202114 60.113327 5 316.2061856389 1.2642258405685 49.621143341064 89 1 delete
07:39:47 57.202110 60.113265 5 315.41473640129 1.0683535337448 28.056201934814 89 1 delete
07:39:42 57.202063 60.113119 5 313.57241136394 0 0 89 1 delete
07:39:39 57.202039 60.113049 5 312.29923949391 0.8450186252594 28.943479537964 89 1 delete
07:39:28 57.201990 60.113011 5 310.05325703882 0.90200299024582 47.880550384521 89 1 delete
07:39:23 57.201989 60.112999 5 309.71422327776 0 47.880550384521 89 1 delete
07:39:18 57.201948 60.112846 5 309.27012648992 1.286029458046 47.498584747314 89 1 delete
07:39:12 57.201915 60.112679 5 310.72271446604 0.69504106044769 31.454685211182 89 1 delete
07:39:07 57.201872 60.112526 5 311.425120892 0.68399083614349 189.34692382812 89 1 delete
07:38:57 57.201858 60.112484 5 311.66749965027 0 189.34692382812 89 1 delete
07:38:47 57.201811 60.112448 5 308.91671769973 0 189.34692382812 89 1 delete
07:38:37 57.201830 60.112600 5 307.09269783832 0 48.417900085449 89 1 delete
07:38:26 57.201830 60.112600 5 307.09269783832 0 48.417900085449 89 1 delete
07:38:20 57.201830 60.112600 5 307.09269783832 0.065526098012924 48.417900085449 89 1 delete
07:38:16 57.201761 60.112441 5 308.11879541073 1.1014847755432 41.830352783203 89 1 delete
07:38:11 57.201695 60.112298 5 308.63925596885 1.1780360937119 28.881622314453 89 1 delete
07:38:06 57.201644 60.112148 5 310.29542179871 1.146294593811 40.466236114502 89 1 delete
07:38:01 57.201596 60.112006 5 310.78225650918 0.70815867185593 32.336715698242 89 1 delete
07:37:55 57.201531 60.111929 5 310.72961376794 0.90444278717041 0 89 1 delete
07:37:53 57.201515 60.111894 5 310.85446266457 0.71296554803848 0 89 1 delete
07:37:45 57.201509 60.111883 5 310.88777920604 0 0 89 1 delete
07:37:38 57.201426 60.111924 5 310.9625455318 2.0974543094635 340.40896606445 91 1 delete
07:37:35 57.201380 60.111955 5 311.06645782478 0.82581830024719 171.31623840332 91 1 delete
07:37:25 57.201340 60.111978 5 311.34388930257 0 171.31623840332 91 1 delete
07:37:14 57.201340 60.111978 5 311.34388930257 0 171.31623840332 91 1 delete
07:37:04 57.201331 60.111976 5 311.63789741322 0 171.31623840332 91 1 delete
07:36:53 57.201331 60.111976 5 311.63789741322 0 171.31623840332 91 1 delete
07:36:43 57.201331 60.112009 5 311.40257858764 0 171.31623840332 91 1 delete
07:36:33 57.201331 60.112009 5 311.40257858764 0 171.31623840332 91 1 delete
07:36:22 57.201339 60.112019 5 310.44710648432 0.98939794301987 171.31623840332 91 1 delete
07:36:13 57.201350 60.112030 5 308.58315806091 1.3411328792572 171.31623840332 91 1 delete
07:36:12 57.201367 60.112029 5 308.23700611666 1.3936747312546 160.65948486328 91 1 delete
07:36:02 57.201515 60.111962 5 305.30905945878 0 336.68179321289 91 1 delete